Time;durP1;ratioP1;P1;durP2;ratioP2;P2;SDS_P1;SDS_P2;PMS_P1;PMS_P2;Temp;Humidity;BMP_temperature;BMP_pressure;BME280_temperature;BME280_humidity;BME280_pressure;Samples;Min_cycle;Max_cycle;Signal;HPM_P1;HPM_P2
2022/12/20 00:01:31;;;;;;;59.30;33.53;;;2.40;99.90;;;;;;4970193;28;20031;-57
2022/12/20 00:03:58;;;;;;;53.22;30.30;;;2.40;99.90;;;;;;4969212;28;20027;-49
2022/12/20 00:06:25;;;;;;;54.05;30.65;;;2.40;99.90;;;;;;4971271;28;20022;-53
2022/12/20 00:08:55;;;;;;;59.53;31.58;;;2.40;99.90;;;;;;4971841;28;20034;-51
2022/12/20 00:11:22;;;;;;;49.33;30.33;;;2.40;99.90;;;;;;4971985;28;20493;-51
2022/12/20 00:13:47;;;;;;;54.95;31.35;;;2.50;99.90;;;;;;4970790;28;20034;-54
2022/12/20 00:16:16;;;;;;;51.22;29.17;;;2.40;99.90;;;;;;4971926;28;20387;-57
2022/12/20 00:18:42;;;;;;;55.28;31.73;;;2.50;99.90;;;;;;4972283;28;20084;-59
2022/12/20 00:21:10;;;;;;;60.17;33.25;;;2.50;99.90;;;;;;4973043;28;20054;-58
2022/12/20 00:23:37;;;;;;;61.42;34.78;;;2.50;99.90;;;;;;4971829;28;20035;-58
2022/12/20 00:26:15;;;;;;;57.97;33.33;;;2.50;99.90;;;;;;4973424;28;20027;-57
2022/12/20 00:28:42;;;;;;;55.70;30.92;;;2.50;99.90;;;;;;4974165;28;20023;-52
2022/12/20 00:31:09;;;;;;;64.85;34.42;;;2.50;99.90;;;;;;4974846;28;20073;-53
2022/12/20 00:33:37;;;;;;;55.00;32.50;;;2.50;99.90;;;;;;4974073;28;20502;-57
2022/12/20 00:36:04;;;;;;;56.97;31.38;;;2.50;99.90;;;;;;4974953;28;20027;-57
2022/12/20 00:38:29;;;;;;;59.83;34.40;;;2.50;99.90;;;;;;4971900;28;20070;-58
2022/12/20 00:41:07;;;;;;;58.20;32.75;;;2.50;99.90;;;;;;4974789;28;20034;-51
2022/12/20 00:43:33;;;;;;;53.60;32.35;;;2.50;99.90;;;;;;4974349;28;20031;-55
2022/12/20 00:45:59;;;;;;;98.90;51.38;;;2.50;99.90;;;;;;4975411;28;20026;-56
2022/12/20 00:48:25;;;;;;;75.85;45.17;;;2.40;99.90;;;;;;4974871;28;20023;-54
2022/12/20 00:50:51;;;;;;;73.65;39.67;;;2.40;99.90;;;;;;4974535;28;20522;-54
2022/12/20 00:53:17;;;;;;;60.38;34.28;;;2.40;99.90;;;;;;4972716;28;20247;-56
2022/12/20 00:55:45;;;;;;;51.72;30.35;;;2.30;99.90;;;;;;4974279;28;20031;-56
2022/12/20 00:58:11;;;;;;;56.17;30.48;;;2.30;99.90;;;;;;4974148;28;20058;-56
2022/12/20 01:00:37;;;;;;;63.78;35.10;;;2.30;99.90;;;;;;4974231;28;20027;-57
2022/12/20 01:03:03;;;;;;;61.08;32.60;;;2.30;99.90;;;;;;4973148;28;20509;-57
2022/12/20 01:05:29;;;;;;;61.60;33.38;;;2.40;99.90;;;;;;4974106;28;20066;-58
2022/12/20 01:07:54;;;;;;;64.05;34.33;;;2.30;99.90;;;;;;4973520;28;20061;-56
2022/12/20 01:10:20;;;;;;;59.53;32.72;;;2.30;99.90;;;;;;5019658;23;20046;-48
2022/12/20 01:12:45;;;;;;;56.38;33.15;;;2.30;99.90;;;;;;4994785;28;20240;-47
2022/12/20 01:15:11;;;;;;;61.67;33.15;;;2.30;99.90;;;;;;5012978;28;20431;-45
2022/12/20 01:17:37;;;;;;;53.42;32.30;;;2.30;99.90;;;;;;5013369;28;20474;-47
2022/12/20 01:20:04;;;;;;;61.60;33.15;;;2.30;99.90;;;;;;5027574;28;20033;-48
2022/12/20 01:22:30;;;;;;;56.45;31.75;;;2.40;99.90;;;;;;5014129;28;20030;-49
2022/12/20 01:24:55;;;;;;;52.90;30.63;;;2.40;99.90;;;;;;5014842;28;20038;-47
2022/12/20 01:27:21;;;;;;;57.13;33.15;;;2.40;99.90;;;;;;5031079;28;20489;-47
2022/12/20 01:29:46;;;;;;;60.28;32.42;;;2.40;99.90;;;;;;5014764;28;20469;-50
2022/12/20 01:32:12;;;;;;;62.33;33.20;;;2.40;99.90;;;;;;5032221;28;20018;-51
2022/12/20 01:34:37;;;;;;;64.35;34.25;;;2.40;99.90;;;;;;5014674;28;20474;-47
2022/12/20 01:37:03;;;;;;;61.78;32.22;;;2.40;99.90;;;;;;5032279;28;20033;-51
2022/12/20 01:39:28;;;;;;;59.92;32.60;;;2.40;99.90;;;;;;5012777;28;20056;-48
2022/12/20 01:41:54;;;;;;;55.60;31.52;;;2.40;99.90;;;;;;5031887;28;20025;-52
2022/12/20 01:44:19;;;;;;;60.60;30.95;;;2.40;99.90;;;;;;5032176;28;20031;-47
2022/12/20 01:46:47;;;;;;;56.33;33.05;;;2.50;99.90;;;;;;5031997;28;20477;-50
2022/12/20 01:49:19;;;;;;;54.85;30.58;;;2.50;99.90;;;;;;5014570;28;20072;-49
2022/12/20 01:51:57;;;;;;;60.65;32.45;;;2.50;99.90;;;;;;5032009;28;20440;-45
2022/12/20 01:54:28;;;;;;;57.72;32.00;;;2.50;99.90;;;;;;5014411;28;20017;-51
2022/12/20 01:57:02;;;;;;;49.72;29.92;;;2.50;99.90;;;;;;5032015;28;20044;-45
2022/12/20 01:59:30;;;;;;;55.95;31.65;;;2.60;99.90;;;;;;5031997;28;20025;-48
2022/12/20 02:02:03;;;;;;;50.35;28.48;;;2.50;99.90;;;;;;5031503;28;20043;-45
2022/12/20 02:04:29;;;;;;;56.40;31.63;;;2.60;99.90;;;;;;5031891;28;20033;-49
2022/12/20 02:06:56;;;;;;;56.13;31.63;;;2.60;99.90;;;;;;5014300;28;20481;-46
2022/12/20 02:09:22;;;;;;;58.20;32.25;;;2.50;99.90;;;;;;5031778;28;20033;-49
2022/12/20 02:12:12;;;;;;;54.35;29.90;;;2.50;99.90;;;;;;5031317;28;20048;-46
2022/12/20 02:14:50;;;;;;;58.28;32.28;;;2.60;99.90;;;;;;5031303;28;20025;-47
2022/12/20 02:17:49;;;;;;;56.53;31.85;;;2.60;99.90;;;;;;5031614;28;20492;-50
2022/12/20 02:20:54;;;;;;;60.83;31.15;;;2.50;99.90;;;;;;5032062;28;20028;-52
2022/12/20 02:23:32;;;;;;;51.40;29.80;;;2.50;99.90;;;;;;4980854;28;20064;-50
2022/12/20 02:26:26;;;;;;;54.83;31.33;;;2.50;99.90;;;;;;5013954;28;20033;-48
2022/12/20 02:29:10;;;;;;;61.38;32.58;;;2.50;99.90;;;;;;5031493;28;20036;-48
2022/12/20 02:31:41;;;;;;;52.28;29.52;;;2.50;99.90;;;;;;5031736;28;20106;-51
2022/12/20 02:34:09;;;;;;;61.78;31.85;;;2.40;99.90;;;;;;5030891;28;20029;-49
2022/12/20 02:36:35;;;;;;;64.15;35.20;;;2.40;99.90;;;;;;5013887;28;20167;-50
2022/12/20 02:39:00;;;;;;;60.30;34.65;;;2.30;99.90;;;;;;5011677;28;20109;-47
2022/12/20 02:41:31;;;;;;;56.05;30.60;;;2.30;99.90;;;;;;5013801;28;20412;-47
2022/12/20 02:46:55;;;;;;;65.95;33.15;;;2.20;99.90;;;;;;5031250;28;20507;-46
2022/12/20 02:49:25;;;;;;;79.70;34.05;;;2.10;99.90;;;;;;5031437;28;20038;-46
2022/12/20 02:51:52;;;;;;;62.83;32.75;;;2.10;99.90;;;;;;5031059;28;20037;-45
2022/12/20 02:54:18;;;;;;;59.05;31.70;;;2.20;99.90;;;;;;5031220;28;20029;-49
2022/12/20 02:56:50;;;;;;;61.58;33.55;;;2.30;99.90;;;;;;5031254;28;20025;-53
2022/12/20 02:59:26;;;;;;;61.17;33.67;;;2.30;99.90;;;;;;5031231;28;20068;-46
2022/12/20 03:01:53;;;;;;;62.58;34.33;;;2.30;99.90;;;;;;5013074;28;20033;-43
2022/12/20 03:04:33;;;;;;;61.42;34.08;;;2.20;99.90;;;;;;5031306;28;20106;-49
2022/12/20 03:07:05;;;;;;;67.18;33.85;;;2.20;99.90;;;;;;5031229;28;20022;-45
2022/12/20 03:09:34;;;;;;;66.38;33.45;;;2.20;99.90;;;;;;5013387;28;20135;-45
2022/12/20 03:12:00;;;;;;;58.03;33.90;;;2.20;99.90;;;;;;5030337;28;20029;-46
2022/12/20 03:14:26;;;;;;;65.57;36.08;;;2.20;99.90;;;;;;5031672;28;20396;-48
2022/12/20 03:16:52;;;;;;;64.13;34.70;;;2.20;99.90;;;;;;5013604;28;20022;-47
2022/12/20 03:19:18;;;;;;;58.58;33.17;;;2.30;99.90;;;;;;5030981;28;20128;-46
2022/12/20 03:21:44;;;;;;;65.25;33.05;;;2.30;99.90;;;;;;5030995;28;20501;-47
2022/12/20 03:24:12;;;;;;;59.88;34.92;;;2.20;99.90;;;;;;5012757;28;20059;-49
2022/12/20 03:26:38;;;;;;;61.95;33.60;;;2.20;99.90;;;;;;5032865;28;20032;-48
2022/12/20 03:29:04;;;;;;;62.25;32.35;;;2.30;99.90;;;;;;5035229;28;20485;-49
2022/12/20 03:31:29;;;;;;;59.33;33.15;;;2.30;99.90;;;;;;5017096;28;20032;-47
2022/12/20 03:33:55;;;;;;;58.67;31.73;;;2.30;99.90;;;;;;5033829;28;20025;-47
2022/12/20 03:36:22;;;;;;;55.45;30.98;;;2.30;99.90;;;;;;5034464;28;20040;-50
2022/12/20 03:38:49;;;;;;;60.72;31.52;;;2.30;99.90;;;;;;5032522;28;20489;-49
2022/12/20 03:41:15;;;;;;;54.45;30.58;;;2.30;99.90;;;;;;5016954;28;20445;-49
2022/12/20 03:43:41;;;;;;;60.50;32.78;;;2.30;99.90;;;;;;5033776;28;20080;-48
2022/12/20 03:46:06;;;;;;;58.90;31.50;;;2.30;99.90;;;;;;5034356;28;20456;-51
2022/12/20 03:48:32;;;;;;;51.97;30.48;;;2.30;99.90;;;;;;5034029;28;20105;-47
2022/12/20 03:50:57;;;;;;;60.30;32.00;;;2.30;99.90;;;;;;5034100;28;20117;-49
2022/12/20 03:53:23;;;;;;;63.08;32.90;;;2.40;99.90;;;;;;5033837;28;20105;-49
2022/12/20 03:55:48;;;;;;;52.53;31.00;;;2.40;99.90;;;;;;5034223;28;20025;-51
2022/12/20 03:58:14;;;;;;;60.40;30.67;;;2.40;99.90;;;;;;5034050;28;20041;-52
2022/12/20 04:00:39;;;;;;;56.10;31.02;;;2.40;99.90;;;;;;5033994;28;20034;-46
2022/12/20 04:03:05;;;;;;;60.22;32.10;;;2.30;99.90;;;;;;5033149;28;20102;-46
2022/12/20 04:05:30;;;;;;;54.40;30.55;;;2.40;99.90;;;;;;5033865;28;20480;-50
2022/12/20 04:07:56;;;;;;;50.53;28.35;;;2.40;99.90;;;;;;5033681;28;20102;-48
2022/12/20 04:10:21;;;;;;;44.30;28.83;;;2.50;99.90;;;;;;5033580;28;20160;-47
2022/12/20 04:12:47;;;;;;;48.88;28.85;;;2.50;99.90;;;;;;5033069;28;20033;-51
2022/12/20 04:15:12;;;;;;;48.28;28.88;;;2.50;99.90;;;;;;5033772;28;20091;-48
2022/12/20 04:17:38;;;;;;;50.60;28.73;;;2.60;99.90;;;;;;5033591;28;20040;-47
2022/12/20 04:20:17;;;;;;;46.10;27.83;;;2.60;99.90;;;;;;5033570;28;20028;-51
2022/12/20 04:22:47;;;;;;;49.80;29.90;;;2.60;99.90;;;;;;5033035;28;20026;-49
2022/12/20 04:25:14;;;;;;;53.08;28.45;;;2.70;99.90;;;;;;5033871;28;20026;-48
2022/12/20 04:27:40;;;;;;;44.40;26.88;;;2.70;99.90;;;;;;5033404;28;20030;-49
2022/12/20 04:30:06;;;;;;;48.70;27.42;;;2.70;99.90;;;;;;5033453;28;20026;-46
2022/12/20 04:32:31;;;;;;;43.03;27.90;;;2.70;99.90;;;;;;5032708;28;20032;-46
2022/12/20 04:34:57;;;;;;;49.00;29.15;;;2.70;99.90;;;;;;5032192;28;20021;-47
2022/12/20 04:37:22;;;;;;;51.25;28.17;;;2.70;99.90;;;;;;5032768;28;20493;-48
2022/12/20 04:39:48;;;;;;;47.72;27.38;;;2.70;99.90;;;;;;5033150;28;20083;-47
2022/12/20 04:42:13;;;;;;;48.03;28.65;;;2.70;99.90;;;;;;5014737;28;20022;-46
2022/12/20 04:44:39;;;;;;;50.47;28.52;;;2.80;99.90;;;;;;5033308;28;20060;-48
2022/12/20 04:47:04;;;;;;;57.63;31.35;;;2.70;99.90;;;;;;5032999;28;20598;-46
2022/12/20 04:49:30;;;;;;;49.95;29.25;;;2.80;99.90;;;;;;5015216;28;20024;-48
2022/12/20 04:53:46;;;;;;;55.95;30.92;;;2.80;99.90;;;;;;5033137;28;20033;-50
2022/12/20 04:54:41;;;;;;;51.63;29.05;;;2.90;99.90;;;;;;5032934;28;20073;-47
2022/12/20 04:57:08;;;;;;;48.80;27.75;;;2.80;99.90;;;;;;5031570;28;20498;-47
2022/12/20 04:59:34;;;;;;;45.67;28.02;;;2.80;99.90;;;;;;5032931;28;20354;-50
2022/12/20 05:02:00;;;;;;;47.08;27.75;;;2.70;99.90;;;;;;5032224;28;20100;-50
2022/12/20 05:04:25;;;;;;;46.58;26.27;;;2.70;99.90;;;;;;5015020;28;20382;-47
2022/12/20 05:06:51;;;;;;;46.05;26.50;;;2.70;99.90;;;;;;5015055;28;20072;-46
2022/12/20 05:09:16;;;;;;;49.97;27.65;;;2.80;99.90;;;;;;5014872;28;20144;-48
2022/12/20 05:11:42;;;;;;;48.30;28.25;;;2.80;99.90;;;;;;5032739;28;20430;-47
2022/12/20 05:14:07;;;;;;;52.30;29.45;;;2.80;99.90;;;;;;5032004;28;20022;-51
2022/12/20 05:16:33;;;;;;;50.20;28.85;;;2.80;99.90;;;;;;5014703;28;20029;-50
2022/12/20 05:18:58;;;;;;;46.45;27.60;;;2.80;99.90;;;;;;5032445;28;20109;-51
2022/12/20 05:26:53;;;;;;;51.00;29.27;;;2.80;99.90;;;;;;5032380;28;20032;-48
2022/12/20 05:29:18;;;;;;;44.78;27.92;;;2.70;99.90;;;;;;5032442;28;20025;-47
2022/12/20 05:31:44;;;;;;;47.90;27.52;;;2.60;99.90;;;;;;5032573;28;20028;-51
2022/12/20 05:34:09;;;;;;;47.28;27.23;;;2.50;99.90;;;;;;5031643;28;20072;-48
2022/12/20 05:36:35;;;;;;;48.88;27.40;;;2.50;99.90;;;;;;5014465;28;20025;-48
2022/12/20 05:39:01;;;;;;;48.25;29.13;;;2.50;99.90;;;;;;5030479;28;20042;-47
2022/12/20 05:41:26;;;;;;;48.88;27.65;;;2.50;99.90;;;;;;5032526;28;20037;-49
2022/12/20 05:43:52;;;;;;;47.63;27.92;;;2.50;99.90;;;;;;5031505;28;20481;-50
2022/12/20 05:46:17;;;;;;;47.85;27.00;;;2.60;99.90;;;;;;5031909;28;20026;-48
2022/12/20 05:48:43;;;;;;;50.22;27.20;;;2.60;99.90;;;;;;5031775;28;20431;-48
2022/12/20 05:51:08;;;;;;;45.88;27.50;;;2.70;99.90;;;;;;5031155;28;20057;-48
2022/12/20 05:53:34;;;;;;;50.72;28.83;;;2.70;99.90;;;;;;5031482;28;20027;-52
2022/12/20 05:56:00;;;;;;;47.70;28.65;;;2.70;99.90;;;;;;5030617;28;20021;-45
2022/12/20 05:58:26;;;;;;;48.35;28.08;;;2.80;99.90;;;;;;5031771;28;20465;-47
2022/12/20 06:00:51;;;;;;;49.60;28.65;;;2.80;99.90;;;;;;5014083;28;20064;-47
2022/12/20 06:03:17;;;;;;;56.53;29.13;;;2.80;99.90;;;;;;5031070;28;20036;-48
2022/12/20 06:05:43;;;;;;;50.75;29.20;;;2.70;99.90;;;;;;5031621;28;20032;-51
2022/12/20 06:08:10;;;;;;;58.88;32.70;;;2.70;99.90;;;;;;5031747;28;20026;-48
2022/12/20 06:10:35;;;;;;;53.33;29.38;;;2.60;99.90;;;;;;5031528;28;20033;-45
2022/12/20 06:13:02;;;;;;;58.08;32.72;;;2.60;99.90;;;;;;5030860;28;20033;-47
2022/12/20 06:15:28;;;;;;;60.42;32.92;;;2.70;99.90;;;;;;5031523;28;20072;-49
2022/12/20 06:17:54;;;;;;;61.15;31.77;;;2.70;99.90;;;;;;5031616;28;20029;-52
2022/12/20 06:20:19;;;;;;;54.80;30.38;;;2.70;99.90;;;;;;5031388;28;20508;-48
2022/12/20 06:22:45;;;;;;;55.55;31.80;;;2.60;99.90;;;;;;5013255;28;20029;-48
2022/12/20 06:25:11;;;;;;;56.10;31.25;;;2.60;99.90;;;;;;5031484;28;20505;-49
2022/12/20 06:27:37;;;;;;;51.70;29.25;;;2.60;99.90;;;;;;5031418;28;20025;-47
2022/12/20 06:30:06;;;;;;;55.88;29.38;;;2.50;99.90;;;;;;5031563;28;20069;-48
2022/12/20 06:32:33;;;;;;;56.38;29.20;;;2.40;99.90;;;;;;5030669;28;20021;-47
2022/12/20 06:34:58;;;;;;;58.10;29.55;;;2.40;99.90;;;;;;5031202;28;20044;-49
2022/12/20 06:37:24;;;;;;;52.13;30.38;;;2.40;99.90;;;;;;5031074;28;20037;-48
2022/12/20 06:39:49;;;;;;;49.40;27.67;;;2.40;99.90;;;;;;5030313;28;20545;-44
2022/12/20 06:42:15;;;;;;;48.70;29.42;;;2.40;99.90;;;;;;5012915;28;20440;-48
2022/12/20 06:44:40;;;;;;;53.13;28.60;;;2.50;99.90;;;;;;5031008;28;20028;-45
2022/12/20 06:47:06;;;;;;;44.47;26.40;;;2.60;99.90;;;;;;5031149;28;20033;-46
2022/12/20 06:49:31;;;;;;;45.17;26.50;;;2.60;99.90;;;;;;5013630;28;20018;-45
2022/12/20 06:51:57;;;;;;;49.25;29.17;;;2.70;99.90;;;;;;5030511;28;20120;-46
2022/12/20 06:54:22;;;;;;;46.72;27.38;;;2.80;99.90;;;;;;5013456;28;20057;-46
2022/12/20 06:56:48;;;;;;;45.83;26.52;;;2.90;99.90;;;;;;5031372;28;20467;-46
2022/12/20 06:59:14;;;;;;;53.53;30.20;;;2.90;99.90;;;;;;5031074;28;20509;-51
2022/12/20 07:01:39;;;;;;;52.03;26.63;;;3.00;99.90;;;;;;5033857;28;20037;-49
2022/12/20 07:04:05;;;;;;;47.08;27.50;;;3.00;99.90;;;;;;5034484;28;20073;-47
2022/12/20 07:06:31;;;;;;;48.60;27.00;;;3.00;99.90;;;;;;5034995;28;20041;-45
2022/12/20 07:11:28;;;;;;;48.22;29.42;;;3.10;99.90;;;;;;4955292;29;20142;-54
2022/12/20 07:13:55;;;;;;;46.70;27.80;;;3.10;99.90;;;;;;4956104;29;20032;-53
2022/12/20 07:16:22;;;;;;;51.83;27.88;;;3.10;99.90;;;;;;4957221;29;20027;-57
2022/12/20 07:18:52;;;;;;;47.33;28.10;;;3.10;99.90;;;;;;4955948;29;20032;-56
2022/12/20 07:21:18;;;;;;;55.97;28.25;;;3.10;99.90;;;;;;4936616;29;20547;-53
2022/12/20 07:23:45;;;;;;;45.90;28.50;;;3.20;99.90;;;;;;4951619;29;20027;-56
2022/12/20 07:26:11;;;;;;;46.08;27.52;;;3.10;99.90;;;;;;4952164;28;20030;-51
2022/12/20 07:28:37;;;;;;;46.90;27.08;;;3.10;99.90;;;;;;4937644;29;20147;-55
2022/12/20 07:31:03;;;;;;;47.00;28.60;;;3.10;99.90;;;;;;4937269;29;20095;-56
2022/12/20 07:33:29;;;;;;;49.30;29.60;;;3.20;99.90;;;;;;4937214;29;20451;-55
2022/12/20 07:36:11;;;;;;;47.58;28.05;;;3.10;99.90;;;;;;4952183;28;20137;-53
2022/12/20 07:38:37;;;;;;;51.60;27.40;;;3.10;99.90;;;;;;4937314;29;20151;-52
2022/12/20 07:41:13;;;;;;;47.45;28.65;;;3.10;99.90;;;;;;4936174;29;20115;-54
2022/12/20 07:43:39;;;;;;;50.00;28.08;;;3.10;99.90;;;;;;4951371;29;20377;-50
2022/12/20 07:46:06;;;;;;;53.10;29.40;;;3.20;99.90;;;;;;4937189;29;20503;-51
2022/12/20 07:48:32;;;;;;;48.13;27.38;;;3.10;99.90;;;;;;4951924;29;20042;-56
2022/12/20 07:51:04;;;;;;;48.50;29.20;;;3.10;99.90;;;;;;4937260;29;20031;-51
2022/12/20 07:53:33;;;;;;;53.25;29.02;;;3.10;99.90;;;;;;4947101;29;20034;-53
2022/12/20 07:56:00;;;;;;;48.97;27.02;;;3.10;99.90;;;;;;4954983;29;20027;-55
2022/12/20 07:58:27;;;;;;;55.33;29.02;;;3.00;99.90;;;;;;4955914;28;20407;-55
2022/12/20 08:00:53;;;;;;;45.25;27.23;;;3.10;99.90;;;;;;4955851;28;20036;-57
2022/12/20 08:03:24;;;;;;;44.95;27.85;;;3.10;99.90;;;;;;4953821;29;20514;-54
2022/12/20 08:05:54;;;;;;;49.40;30.42;;;3.10;99.90;;;;;;4956005;28;20031;-54
2022/12/20 08:08:21;;;;;;;54.72;30.95;;;3.10;99.90;;;;;;4954021;28;20023;-51
2022/12/20 08:10:47;;;;;;;48.72;28.77;;;3.10;99.90;;;;;;4969778;28;20069;-55
2022/12/20 08:13:13;;;;;;;49.88;30.25;;;3.20;99.90;;;;;;4973578;28;20041;-54
2022/12/20 08:15:38;;;;;;;55.03;30.73;;;3.20;99.90;;;;;;4973908;28;20032;-52
2022/12/20 08:18:05;;;;;;;56.80;31.73;;;3.30;99.90;;;;;;4975315;28;20037;-53
2022/12/20 08:20:30;;;;;;;51.22;31.25;;;3.30;99.90;;;;;;4975088;28;20057;-52
2022/12/20 08:22:56;;;;;;;57.17;31.00;;;3.30;99.90;;;;;;4974346;28;20054;-55
2022/12/20 08:25:22;;;;;;;55.80;29.98;;;3.30;99.90;;;;;;4957471;28;20090;-55
2022/12/20 08:27:48;;;;;;;53.22;29.95;;;3.30;99.90;;;;;;4970268;28;20046;-52
2022/12/20 08:30:14;;;;;;;58.45;32.15;;;3.20;99.90;;;;;;4987598;28;20378;-53
2022/12/20 08:32:40;;;;;;;48.40;29.17;;;3.20;99.90;;;;;;4993832;28;20029;-55
2022/12/20 08:35:06;;;;;;;46.22;28.63;;;3.20;99.90;;;;;;4975029;28;20023;-52
2022/12/20 08:37:32;;;;;;;48.28;28.38;;;3.30;99.90;;;;;;4974588;28;20418;-51
2022/12/20 08:39:59;;;;;;;50.70;28.75;;;3.30;99.90;;;;;;4974255;28;20027;-53
2022/12/20 08:42:26;;;;;;;52.00;30.33;;;3.40;99.90;;;;;;4973534;28;20075;-52
2022/12/20 08:44:51;;;;;;;51.92;28.88;;;3.50;99.90;;;;;;4974521;28;20034;-51
2022/12/20 08:47:17;;;;;;;49.78;28.83;;;3.50;99.90;;;;;;4974017;28;20034;-50
2022/12/20 08:49:42;;;;;;;50.95;31.15;;;3.50;99.90;;;;;;4974706;28;20077;-54
2022/12/20 08:52:08;;;;;;;52.13;29.90;;;3.60;99.90;;;;;;4973865;28;20322;-52
2022/12/20 08:54:34;;;;;;;51.67;29.23;;;3.60;99.90;;;;;;4974656;28;20034;-54
2022/12/20 08:56:59;;;;;;;53.20;29.77;;;3.50;99.90;;;;;;4957417;28;20035;-57
2022/12/20 08:59:25;;;;;;;48.22;28.73;;;3.50;99.90;;;;;;4971640;28;20090;-55
2022/12/20 09:01:53;;;;;;;45.15;28.75;;;3.50;99.90;;;;;;4974174;28;20031;-52
2022/12/20 09:04:18;;;;;;;45.42;26.73;;;3.50;99.90;;;;;;4974172;28;20031;-55
2022/12/20 09:06:44;;;;;;;43.85;25.60;;;3.60;99.90;;;;;;4973984;28;20569;-52
2022/12/20 09:09:10;;;;;;;46.92;28.85;;;3.70;99.90;;;;;;4973943;28;20034;-54
2022/12/20 09:11:35;;;;;;;48.35;28.25;;;3.80;99.90;;;;;;4974789;28;20554;-53
2022/12/20 09:14:01;;;;;;;43.45;28.27;;;3.80;99.90;;;;;;4973713;28;20026;-53
2022/12/20 09:16:31;;;;;;;50.45;28.80;;;3.90;99.90;;;;;;4974088;28;20027;-52
2022/12/20 09:18:58;;;;;;;45.47;28.30;;;4.00;99.90;;;;;;4974133;28;20023;-52
2022/12/20 09:21:24;;;;;;;49.45;30.48;;;4.10;99.90;;;;;;4973776;28;20222;-52
2022/12/20 09:23:51;;;;;;;52.15;29.48;;;4.20;99.90;;;;;;4953647;28;20496;-48
2022/12/20 09:26:17;;;;;;;52.33;28.90;;;4.20;99.90;;;;;;4953048;29;20027;-51
2022/12/20 09:28:44;;;;;;;47.83;29.50;;;4.30;99.90;;;;;;4954506;29;20507;-49
2022/12/20 09:31:15;;;;;;;49.53;30.33;;;4.30;99.90;;;;;;4954576;29;20498;-50
2022/12/20 09:33:42;;;;;;;53.75;32.78;;;4.40;99.90;;;;;;4953712;29;20074;-54
2022/12/20 09:36:19;;;;;;;51.70;31.23;;;4.40;99.90;;;;;;4954791;28;20105;-52
2022/12/20 09:38:46;;;;;;;60.80;32.50;;;4.40;99.90;;;;;;4954509;29;20416;-52
2022/12/20 09:41:24;;;;;;;48.28;30.35;;;4.50;99.90;;;;;;4954314;29;20374;-52
2022/12/20 09:43:50;;;;;;;52.78;29.52;;;4.50;99.90;;;;;;4954251;29;20030;-55
2022/12/20 09:46:16;;;;;;;49.42;30.05;;;4.70;99.90;;;;;;4954752;29;20427;-49
2022/12/20 09:48:43;;;;;;;58.28;30.08;;;4.60;99.90;;;;;;4954440;29;20082;-51
2022/12/20 09:51:29;;;;;;;55.70;29.48;;;4.60;99.90;;;;;;4954863;29;20484;-54
2022/12/20 09:54:03;;;;;;;;;;;4.50;99.90;;;;;;4953241;29;20521;-58
2022/12/20 09:56:43;;;;;;;46.28;28.00;;;4.50;99.90;;;;;;4966052;28;19910;-53
2022/12/20 09:59:19;;;;;;;46.90;28.05;;;4.50;99.90;;;;;;4973788;28;20023;-55
2022/12/20 10:01:47;;;;;;;42.72;27.25;;;4.50;99.90;;;;;;4974833;28;20038;-52
2022/12/20 10:04:24;;;;;;;45.05;28.42;;;4.50;99.90;;;;;;4974984;28;20368;-55
2022/12/20 10:06:57;;;;;;;48.20;27.55;;;4.50;99.90;;;;;;4973800;28;20078;-54
2022/12/20 10:09:29;;;;;;;43.75;25.33;;;4.50;99.90;;;;;;4973367;28;20030;-53
2022/12/20 10:12:20;;;;;;;48.25;26.88;;;4.60;99.90;;;;;;4972929;28;20030;-52
2022/12/20 10:15:17;;;;;;;43.40;25.48;;;4.60;99.90;;;;;;4973580;28;20018;-57
2022/12/20 10:18:04;;;;;;;45.50;27.15;;;4.50;99.90;;;;;;4972742;28;20030;-52
2022/12/20 10:20:45;;;;;;;41.10;26.30;;;4.60;99.90;;;;;;4973231;28;20022;-58
2022/12/20 10:23:22;;;;;;;43.97;26.92;;;4.60;99.90;;;;;;4972427;28;20090;-55
2022/12/20 10:25:56;;;;;;;39.38;24.58;;;4.50;99.90;;;;;;4973480;28;20110;-51
2022/12/20 10:28:29;;;;;;;42.65;25.48;;;4.50;99.90;;;;;;4971436;28;20033;-53
2022/12/20 10:31:00;;;;;;;45.20;28.10;;;4.50;99.90;;;;;;4973103;28;20051;-53
2022/12/20 10:33:27;;;;;;;40.15;25.58;;;4.50;99.90;;;;;;4971035;28;20082;-53
2022/12/20 10:35:53;;;;;;;38.40;25.13;;;4.50;99.90;;;;;;4972342;28;20022;-53
2022/12/20 10:38:19;;;;;;;43.85;26.73;;;4.50;99.90;;;;;;4972567;28;20031;-55
2022/12/20 10:41:00;;;;;;;37.85;26.42;;;4.60;99.90;;;;;;4972387;28;20443;-55
2022/12/20 10:43:27;;;;;;;45.95;32.63;;;4.60;99.90;;;;;;4971982;28;20464;-54
2022/12/20 10:46:00;;;;;;;48.65;33.47;;;4.50;99.90;;;;;;4969187;28;20054;-51
2022/12/20 10:48:31;;;;;;;104.45;60.88;;;4.50;99.90;;;;;;4945052;28;20134;-51
2022/12/20 10:51:03;;;;;;;58.70;34.83;;;4.60;99.90;;;;;;4964905;28;20027;-53
2022/12/20 10:53:30;;;;;;;111.30;65.55;;;4.70;99.90;;;;;;4952387;28;20023;-51
2022/12/20 10:56:26;;;;;;;49.25;30.95;;;4.70;99.90;;;;;;4953776;28;20027;-53
2022/12/20 10:59:01;;;;;;;48.15;27.42;;;4.80;99.90;;;;;;4963539;28;20034;-49
2022/12/20 11:01:35;;;;;;;38.53;25.15;;;4.80;99.90;;;;;;4983724;28;20026;-48
2022/12/20 11:04:03;;;;;;;53.40;26.20;;;4.90;99.90;;;;;;4982146;28;20031;-48
2022/12/20 11:06:49;;;;;;;41.13;26.33;;;4.90;99.90;;;;;;4979669;28;20043;-54
2022/12/20 11:09:22;;;;;;;37.80;24.63;;;5.00;99.90;;;;;;4971372;28;20557;-50
2022/12/20 11:11:58;;;;;;;40.85;26.27;;;5.00;99.90;;;;;;4973847;28;20061;-50
2022/12/20 11:14:24;;;;;;;39.17;24.42;;;5.10;99.90;;;;;;4974077;28;20031;-50
2022/12/20 11:16:52;;;;;;;38.17;25.33;;;5.10;99.90;;;;;;4973477;28;20085;-50
2022/12/20 11:19:36;;;;;;;42.47;26.52;;;5.20;99.90;;;;;;4972734;28;20057;-52
2022/12/20 11:22:39;;;;;;;41.30;26.60;;;5.30;99.90;;;;;;4971528;28;20042;-48
2022/12/20 11:25:17;;;;;;;42.88;26.08;;;5.40;99.90;;;;;;4970827;28;20412;-45
2022/12/20 11:27:49;;;;;;;40.53;26.30;;;5.50;99.90;;;;;;4952949;29;20067;-51
2022/12/20 11:30:19;;;;;;;43.83;26.48;;;5.60;99.90;;;;;;4953147;29;20042;-48
2022/12/20 11:32:47;;;;;;;38.92;26.05;;;5.80;99.90;;;;;;4952558;28;20019;-53
2022/12/20 11:35:23;;;;;;;36.15;24.05;;;5.80;99.90;;;;;;4972015;28;20031;-55
2022/12/20 11:38:13;;;;;;;36.05;24.50;;;5.90;99.90;;;;;;4959996;29;20038;-51
2022/12/20 11:41:07;;;;;;;39.97;26.30;;;5.90;99.90;;;;;;4961976;28;20039;-50
2022/12/20 11:43:38;;;;;;;39.70;26.15;;;5.90;99.90;;;;;;4958598;29;20027;-53
2022/12/20 11:46:29;;;;;;;38.42;25.40;;;5.90;99.90;;;;;;4962143;28;20141;-52
2022/12/20 11:49:30;;;;;;;37.90;25.60;;;5.90;99.90;;;;;;4979931;28;20034;-52
2022/12/20 11:52:05;;;;;;;37.50;25.05;;;5.90;99.90;;;;;;4979315;28;20487;-50
2022/12/20 11:54:33;;;;;;;43.40;25.23;;;6.00;99.90;;;;;;4960683;28;20039;-55
2022/12/20 11:57:08;;;;;;;44.20;28.25;;;5.90;99.90;;;;;;4955355;29;20499;-52
2022/12/20 11:59:41;;;;;;;56.33;34.67;;;5.90;99.90;;;;;;4939397;29;20129;-49
2022/12/20 12:02:13;;;;;;;73.13;42.55;;;5.80;99.90;;;;;;4955788;29;20647;-53
2022/12/20 12:04:54;;;;;;;53.38;32.50;;;5.80;99.90;;;;;;4956914;29;20061;-49
2022/12/20 12:07:27;;;;;;;42.72;29.40;;;5.80;99.90;;;;;;4963645;28;20027;-49
2022/12/20 12:10:04;;;;;;;43.72;29.10;;;5.80;99.90;;;;;;4976485;28;20121;-51
2022/12/20 12:12:36;;;;;;;43.53;28.17;;;5.80;99.90;;;;;;4975577;28;20023;-53
2022/12/20 12:15:14;;;;;;;44.25;26.70;;;5.90;99.90;;;;;;4976155;28;20109;-51
2022/12/20 12:18:04;;;;;;;44.72;26.35;;;5.90;99.90;;;;;;4975762;28;20034;-55
2022/12/20 12:21:04;;;;;;;40.00;25.70;;;5.90;99.90;;;;;;4975578;28;20023;-51
2022/12/20 12:23:44;;;;;;;40.35;26.98;;;6.00;99.90;;;;;;4972872;28;20431;-50
2022/12/20 12:26:23;;;;;;;41.72;25.35;;;6.00;99.90;;;;;;4975396;28;20035;-50
2022/12/20 12:28:55;;;;;;;36.75;24.48;;;6.00;99.90;;;;;;4975662;28;20480;-52
2022/12/20 12:31:31;;;;;;;37.63;25.15;;;6.10;99.90;;;;;;4973523;28;20352;-53
2022/12/20 12:34:22;;;;;;;42.65;25.00;;;6.00;99.90;;;;;;4974234;28;20023;-52
2022/12/20 12:37:25;;;;;;;38.83;24.52;;;6.00;99.90;;;;;;4974752;28;20384;-52
2022/12/20 12:39:51;;;;;;;35.50;23.65;;;6.10;99.90;;;;;;4961875;28;20590;-51
2022/12/20 12:42:32;;;;;;;42.00;26.90;;;;;;;;;;4973859;28;20062;-49
2022/12/20 12:45:02;;;;;;;39.53;24.17;;;6.00;99.90;;;;;;4972815;28;20459;-50
2022/12/20 12:47:39;;;;;;;32.42;23.35;;;5.90;99.90;;;;;;4974472;28;20026;-48
2022/12/20 12:50:14;;;;;;;33.60;23.35;;;5.80;99.90;;;;;;4973937;28;20037;-51
2022/12/20 12:52:52;;;;;;;36.88;24.27;;;5.90;99.90;;;;;;4973852;28;20450;-48
2022/12/20 12:55:39;;;;;;;31.80;22.92;;;5.90;99.90;;;;;;4960025;28;20432;-48
2022/12/20 12:58:22;;;;;;;34.40;23.20;;;5.90;99.90;;;;;;4937808;28;20027;-49
2022/12/20 13:01:10;;;;;;;32.58;22.05;;;5.90;99.90;;;;;;4961332;28;20065;-51
2022/12/20 13:03:38;;;;;;;36.53;23.35;;;6.00;99.90;;;;;;4958847;28;20030;-53